Time;durP1;ratioP1;P1;durP2;ratioP2;P2;SDS_P1;SDS_P2;PMS_P1;PMS_P2;Temp;Humidity;BMP_temperature;BMP_pressure;BME280_temperature;BME280_humidity;BME280_pressure;Samples;Min_cycle;Max_cycle;Signal;HPM_P1;HPM_P2
2024/01/11 00:02:13;;;;;;;18.42;14.35;;;-6.40;99.90;;;;;;5023008;28;20490;-60
2024/01/11 00:04:43;;;;;;;20.75;12.10;;;-6.40;99.90;;;;;;5025098;28;20214;-61
2024/01/11 00:07:10;;;;;;;14.80;11.18;;;-6.40;99.90;;;;;;5019608;28;20212;-59
2024/01/11 00:09:40;;;;;;;14.80;13.18;;;-6.40;99.90;;;;;;5014658;28;20254;-61
2024/01/11 00:12:07;;;;;;;12.85;10.65;;;-6.40;99.90;;;;;;5020792;28;20303;-59
2024/01/11 00:14:34;;;;;;;17.55;13.40;;;-6.40;99.90;;;;;;5030572;28;20651;-59
2024/01/11 00:17:01;;;;;;;17.30;11.63;;;-6.40;99.90;;;;;;5017839;28;20218;-61
2024/01/11 00:19:29;;;;;;;15.07;13.52;;;-6.40;99.90;;;;;;5027214;28;20353;-59
2024/01/11 00:21:57;;;;;;;12.55;11.20;;;-6.40;99.90;;;;;;5026568;28;20231;-60
2024/01/11 00:24:24;;;;;;;16.10;11.80;;;-6.40;99.90;;;;;;5019408;28;20207;-61
2024/01/11 00:26:50;;;;;;;21.73;12.07;;;-6.40;99.90;;;;;;5021984;28;20211;-60
2024/01/11 00:29:17;;;;;;;20.67;12.13;;;-6.50;99.90;;;;;;5027589;28;20299;-60
2024/01/11 00:31:44;;;;;;;17.30;11.90;;;-6.50;99.90;;;;;;5021845;28;20582;-60
2024/01/11 00:34:11;;;;;;;14.02;11.32;;;-6.50;99.90;;;;;;5024447;28;20200;-59
2024/01/11 00:36:38;;;;;;;21.35;14.10;;;-6.60;99.90;;;;;;5027382;28;20203;-60
2024/01/11 00:39:06;;;;;;;20.27;11.00;;;-6.50;99.90;;;;;;5025251;28;20254;-60
2024/01/11 00:41:33;;;;;;;13.20;10.55;;;-6.60;99.90;;;;;;5025266;28;20257;-59
2024/01/11 00:44:00;;;;;;;17.08;13.45;;;-6.60;99.90;;;;;;5024463;28;20217;-61
2024/01/11 00:46:27;;;;;;;13.68;10.55;;;-6.60;99.90;;;;;;5023122;28;20696;-61
2024/01/11 00:48:53;;;;;;;20.95;14.07;;;-6.60;99.90;;;;;;5031365;28;20205;-59
2024/01/11 00:51:20;;;;;;;15.93;12.20;;;-6.50;99.90;;;;;;5021829;28;20230;-57
2024/01/11 00:53:47;;;;;;;19.48;15.70;;;-6.60;99.90;;;;;;5030144;28;20214;-60
2024/01/11 00:56:18;;;;;;;18.65;12.23;;;-6.60;99.90;;;;;;5020632;28;20200;-60
2024/01/11 00:58:45;;;;;;;20.73;11.77;;;-6.60;99.90;;;;;;5027910;28;20222;-60
2024/01/11 01:01:12;;;;;;;18.00;13.43;;;-6.60;99.90;;;;;;5026027;28;20234;-58
2024/01/11 01:03:39;;;;;;;14.73;10.00;;;-6.60;99.90;;;;;;5027229;28;20217;-60
2024/01/11 01:06:06;;;;;;;16.13;13.82;;;-6.60;99.90;;;;;;5023741;28;20217;-60
2024/01/11 01:08:34;;;;;;;20.02;13.07;;;-6.60;99.90;;;;;;5026746;28;20203;-59
2024/01/11 01:11:00;;;;;;;15.55;11.98;;;-6.60;99.90;;;;;;5028944;28;20641;-60
2024/01/11 01:13:29;;;;;;;14.85;11.70;;;-6.60;99.90;;;;;;5024426;28;20294;-59
2024/01/11 01:15:56;;;;;;;19.67;13.23;;;-6.60;99.90;;;;;;5027799;28;20203;-60
2024/01/11 01:18:22;;;;;;;14.25;10.73;;;-6.60;99.90;;;;;;5022914;28;20628;-58
2024/01/11 01:23:18;;;;;;;19.27;12.07;;;-6.60;99.90;;;;;;5059650;22;20226;-63
2024/01/11 01:25:46;;;;;;;18.52;14.00;;;-6.60;99.90;;;;;;5030173;28;20703;-63
2024/01/11 01:28:12;;;;;;;13.82;12.00;;;-6.60;99.90;;;;;;5030184;28;20215;-63
2024/01/11 01:30:41;;;;;;;16.58;12.50;;;-6.70;99.90;;;;;;5030087;28;20207;-63
2024/01/11 01:33:07;;;;;;;18.15;12.52;;;-6.70;99.90;;;;;;5029669;28;20233;-62
2024/01/11 01:35:34;;;;;;;18.90;13.18;;;-6.70;99.90;;;;;;5029267;28;20199;-63
2024/01/11 01:38:02;;;;;;;18.30;11.80;;;-6.70;99.90;;;;;;5030505;28;20620;-62
2024/01/11 01:40:31;;;;;;;16.83;11.43;;;-6.70;99.90;;;;;;5030924;28;20203;-62
2024/01/11 01:42:59;;;;;;;18.02;13.57;;;-6.70;99.90;;;;;;5031120;28;20713;-63
2024/01/11 01:45:26;;;;;;;18.40;10.43;;;-6.80;99.90;;;;;;5031420;28;20211;-63
2024/01/11 01:47:55;;;;;;;16.42;11.80;;;-6.80;99.90;;;;;;5031321;28;20211;-62
2024/01/11 01:50:22;;;;;;;15.35;12.13;;;-6.80;99.90;;;;;;5030900;28;20203;-62
2024/01/11 01:52:51;;;;;;;13.88;11.45;;;-6.80;99.90;;;;;;5031362;28;20237;-63
2024/01/11 01:55:19;;;;;;;19.35;12.45;;;-6.80;99.90;;;;;;5031209;28;20211;-63
2024/01/11 01:57:48;;;;;;;16.05;11.57;;;-6.80;99.90;;;;;;5031199;28;20239;-62
2024/01/11 02:00:15;;;;;;;19.95;13.70;;;-6.90;99.90;;;;;;5031120;28;20210;-63
2024/01/11 02:02:44;;;;;;;17.00;11.65;;;-6.90;99.90;;;;;;5030962;28;20323;-62
2024/01/11 02:05:15;;;;;;;21.25;11.65;;;-6.90;99.90;;;;;;5031443;28;20771;-62
2024/01/11 02:07:42;;;;;;;14.73;11.50;;;-6.90;99.90;;;;;;5031235;28;20211;-63
2024/01/11 02:10:09;;;;;;;16.13;11.27;;;-7.00;99.90;;;;;;5031037;28;20218;-62
2024/01/11 02:12:37;;;;;;;19.38;11.70;;;-7.00;99.90;;;;;;5031106;28;20227;-61
2024/01/11 02:15:05;;;;;;;13.25;11.88;;;-7.00;99.90;;;;;;5031039;28;20218;-62
2024/01/11 02:17:32;;;;;;;19.70;13.38;;;-7.00;99.90;;;;;;5031210;28;20239;-61
2024/01/11 02:19:59;;;;;;;19.42;12.90;;;-7.10;99.90;;;;;;5030857;28;20213;-59
2024/01/11 02:22:32;;;;;;;16.60;12.10;;;-7.00;99.90;;;;;;5030783;28;20317;-61
2024/01/11 02:25:01;;;;;;;20.77;13.13;;;-7.00;99.90;;;;;;5030978;28;20792;-60
2024/01/11 02:27:27;;;;;;;20.85;12.45;;;-7.00;99.90;;;;;;5030925;28;20685;-62
2024/01/11 02:29:54;;;;;;;16.08;13.27;;;-7.00;99.90;;;;;;5030678;28;20211;-62
2024/01/11 02:32:22;;;;;;;16.58;11.43;;;-7.00;99.90;;;;;;5032764;28;20250;-62
2024/01/11 02:34:49;;;;;;;11.43;10.23;;;-7.00;99.90;;;;;;5034439;28;20207;-61
2024/01/11 02:37:17;;;;;;;17.45;13.13;;;-7.00;99.90;;;;;;5034559;28;20302;-62
2024/01/11 02:39:44;;;;;;;15.32;11.18;;;-7.00;99.90;;;;;;5034289;28;20203;-62
2024/01/11 02:42:12;;;;;;;16.05;12.48;;;-7.10;99.90;;;;;;5034251;28;20241;-61
2024/01/11 02:44:38;;;;;;;21.85;14.43;;;-7.10;99.90;;;;;;5034252;28;20297;-62
2024/01/11 02:47:05;;;;;;;15.90;13.35;;;-7.10;99.90;;;;;;5034312;28;20297;-61
2024/01/11 02:49:32;;;;;;;19.52;11.73;;;-7.10;99.90;;;;;;5034178;28;20207;-62
2024/01/11 02:51:59;;;;;;;16.15;14.48;;;-7.10;99.90;;;;;;5034257;28;20677;-60
2024/01/11 02:54:26;;;;;;;13.85;12.10;;;-7.10;99.90;;;;;;5034171;28;20215;-60
2024/01/11 02:56:53;;;;;;;13.55;10.10;;;-7.10;99.90;;;;;;5033890;28;20662;-61
2024/01/11 02:59:21;;;;;;;11.57;10.52;;;-7.10;99.90;;;;;;5033901;28;20200;-62
2024/01/11 03:01:48;;;;;;;19.95;10.93;;;-7.20;99.90;;;;;;5034088;28;20246;-62
2024/01/11 03:04:15;;;;;;;21.27;11.50;;;-7.20;99.90;;;;;;5034105;28;20266;-62
2024/01/11 03:06:42;;;;;;;18.02;11.90;;;-7.20;99.90;;;;;;5033207;28;20208;-62
2024/01/11 03:09:08;;;;;;;16.60;11.43;;;-7.20;99.90;;;;;;5033380;28;20680;-62
2024/01/11 03:11:37;;;;;;;15.57;11.95;;;-7.20;99.90;;;;;;5033853;28;20302;-61
2024/01/11 03:14:04;;;;;;;12.35;10.52;;;-7.20;99.90;;;;;;5033796;28;20218;-61
2024/01/11 03:16:32;;;;;;;18.10;11.57;;;-7.20;99.90;;;;;;5033529;28;20303;-59
2024/01/11 03:18:59;;;;;;;18.13;14.25;;;-7.20;99.90;;;;;;5013781;28;20294;-61
2024/01/11 03:21:26;;;;;;;12.95;11.00;;;-7.20;99.90;;;;;;5013379;28;20235;-62
2024/01/11 03:23:52;;;;;;;11.95;10.80;;;-7.20;99.90;;;;;;5013789;28;20214;-62
2024/01/11 03:26:19;;;;;;;23.60;13.23;;;-7.20;99.90;;;;;;5013878;28;20299;-61
2024/01/11 03:28:46;;;;;;;16.63;12.95;;;-7.30;99.90;;;;;;5013802;28;20212;-60
2024/01/11 03:31:13;;;;;;;19.77;10.93;;;-7.30;99.90;;;;;;5013482;28;20657;-61
2024/01/11 03:33:41;;;;;;;15.73;12.38;;;-7.30;99.90;;;;;;5013613;28;20582;-61
2024/01/11 03:36:09;;;;;;;16.63;10.57;;;-7.30;99.90;;;;;;5024617;28;20222;-62
2024/01/11 03:38:35;;;;;;;16.98;14.45;;;-7.30;99.90;;;;;;5033040;28;20704;-62
2024/01/11 03:41:02;;;;;;;18.55;12.10;;;-7.40;99.90;;;;;;5033222;28;20301;-62
2024/01/11 03:43:29;;;;;;;15.68;12.32;;;-7.30;99.90;;;;;;5031894;28;20234;-62
2024/01/11 03:45:56;;;;;;;13.52;10.82;;;-7.30;99.90;;;;;;5033249;28;20207;-61
2024/01/11 03:48:23;;;;;;;13.15;11.25;;;-7.40;99.90;;;;;;5032973;28;20209;-61
2024/01/11 03:50:51;;;;;;;20.52;12.40;;;-7.30;99.90;;;;;;5033128;28;20294;-62
2024/01/11 03:53:18;;;;;;;12.63;10.95;;;-7.40;99.90;;;;;;5033160;28;20227;-62
2024/01/11 03:55:45;;;;;;;16.63;11.75;;;-7.40;99.90;;;;;;5032958;28;20302;-61
2024/01/11 03:58:12;;;;;;;22.60;13.40;;;-7.40;99.90;;;;;;5032915;28;20226;-61
2024/01/11 04:00:39;;;;;;;18.63;11.80;;;-7.40;99.90;;;;;;5032561;28;20210;-62
2024/01/11 04:03:07;;;;;;;18.27;11.98;;;-7.40;99.90;;;;;;5032599;28;20756;-62
2024/01/11 04:05:34;;;;;;;17.45;11.63;;;-7.40;99.90;;;;;;5032978;28;20294;-61
2024/01/11 04:08:05;;;;;;;13.07;10.48;;;-7.40;99.90;;;;;;5032828;28;20207;-62
2024/01/11 04:10:32;;;;;;;14.85;11.00;;;-7.50;99.90;;;;;;5032618;28;20210;-62
2024/01/11 04:12:58;;;;;;;17.38;11.05;;;-7.50;99.90;;;;;;5032676;28;20230;-62
2024/01/11 04:15:25;;;;;;;15.35;10.35;;;-7.50;99.90;;;;;;5031326;28;20775;-62
2024/01/11 04:17:52;;;;;;;15.48;11.98;;;-7.50;99.90;;;;;;5032470;28;20211;-61
2024/01/11 04:20:19;;;;;;;10.73;9.63;;;-7.50;99.90;;;;;;5032206;28;20297;-62
2024/01/11 04:22:46;;;;;;;17.50;11.75;;;-7.50;99.90;;;;;;5032106;28;20620;-60
2024/01/11 04:25:15;;;;;;;17.20;12.02;;;-7.50;99.90;;;;;;5032266;28;20302;-62
2024/01/11 04:27:42;;;;;;;20.50;11.20;;;-7.50;99.90;;;;;;5032417;28;20337;-62
2024/01/11 04:30:09;;;;;;;12.95;11.60;;;-7.50;99.90;;;;;;5032060;28;20321;-61
2024/01/11 04:32:36;;;;;;;18.20;11.65;;;-7.50;99.90;;;;;;5031871;28;20231;-61
2024/01/11 04:35:03;;;;;;;14.18;11.77;;;-7.60;99.90;;;;;;5031809;28;20214;-62
2024/01/11 04:37:29;;;;;;;17.05;12.93;;;-7.60;99.90;;;;;;5031889;28;20322;-61
2024/01/11 04:39:59;;;;;;;19.33;11.18;;;-7.60;99.90;;;;;;5031861;28;20207;-61
2024/01/11 04:42:28;;;;;;;14.80;10.50;;;-7.70;99.90;;;;;;5031949;28;20235;-62
2024/01/11 04:44:54;;;;;;;18.42;11.82;;;-7.60;99.90;;;;;;5031826;28;20302;-62
2024/01/11 04:47:21;;;;;;;12.48;9.25;;;-7.60;99.90;;;;;;5031972;28;20297;-62
2024/01/11 04:49:48;;;;;;;15.13;10.95;;;-7.60;99.90;;;;;;5031589;28;20206;-62
2024/01/11 04:52:15;;;;;;;13.10;10.80;;;-7.60;99.90;;;;;;5031478;28;20898;-62
2024/01/11 04:54:42;;;;;;;19.35;10.63;;;-7.60;99.90;;;;;;5031624;28;20211;-62
2024/01/11 04:57:08;;;;;;;18.45;10.35;;;-7.70;99.90;;;;;;5032075;28;20686;-62
2024/01/11 04:59:37;;;;;;;17.90;11.38;;;-7.70;99.90;;;;;;5031924;28;20213;-61
2024/01/11 05:02:04;;;;;;;14.95;10.10;;;-7.70;99.90;;;;;;5031859;28;20271;-62
2024/01/11 05:04:31;;;;;;;12.55;9.90;;;-7.70;99.90;;;;;;5031827;28;20298;-62
2024/01/11 05:06:57;;;;;;;16.88;10.82;;;-7.70;99.90;;;;;;5031672;28;20314;-63
2024/01/11 05:09:24;;;;;;;17.17;14.25;;;-7.70;99.90;;;;;;5031636;28;20207;-63
2024/01/11 05:11:51;;;;;;;14.20;10.93;;;-7.70;99.90;;;;;;5031325;28;20715;-63
2024/01/11 05:14:18;;;;;;;15.00;10.88;;;-7.70;99.90;;;;;;5031979;28;20204;-63
2024/01/11 05:16:46;;;;;;;13.43;12.07;;;-7.70;99.90;;;;;;5031684;28;20757;-63
2024/01/11 05:19:13;;;;;;;15.73;12.90;;;-7.70;99.90;;;;;;5031411;28;20213;-63
2024/01/11 05:21:40;;;;;;;14.10;11.00;;;-7.70;99.90;;;;;;5031203;28;20239;-63
2024/01/11 05:24:06;;;;;;;13.38;9.45;;;-7.70;99.90;;;;;;5031524;28;20749;-63
2024/01/11 05:26:33;;;;;;;15.35;11.20;;;-7.80;99.90;;;;;;5030842;28;20209;-63
2024/01/11 05:29:00;;;;;;;16.77;12.05;;;-7.80;99.90;;;;;;5031291;28;20203;-63
2024/01/11 05:31:27;;;;;;;15.85;12.63;;;-7.80;99.90;;;;;;5031082;28;20231;-63
2024/01/11 05:33:55;;;;;;;14.50;12.88;;;-7.80;99.90;;;;;;5030754;28;20199;-63
2024/01/11 05:36:22;;;;;;;12.15;9.45;;;-7.80;99.90;;;;;;5031240;28;20206;-63
2024/01/11 05:38:49;;;;;;;20.60;11.13;;;-7.80;99.90;;;;;;5031434;28;20241;-63
2024/01/11 05:41:16;;;;;;;15.80;10.70;;;-7.90;99.90;;;;;;5030840;28;20254;-63
2024/01/11 05:43:44;;;;;;;19.40;12.60;;;-7.90;99.90;;;;;;5031316;28;20314;-61
2024/01/11 05:46:10;;;;;;;17.27;9.77;;;-7.90;99.90;;;;;;5031245;28;20214;-63
2024/01/11 05:48:37;;;;;;;15.38;11.00;;;-7.90;99.90;;;;;;5031161;28;20211;-63
2024/01/11 05:51:06;;;;;;;20.92;12.32;;;-7.90;99.90;;;;;;5031091;28;20234;-63
2024/01/11 05:53:35;;;;;;;17.23;11.13;;;-7.90;99.90;;;;;;5031091;28;20706;-62
2024/01/11 05:56:02;;;;;;;15.55;14.05;;;-7.90;99.90;;;;;;5031380;28;20207;-63
2024/01/11 05:58:29;;;;;;;15.38;12.57;;;-7.90;99.90;;;;;;5030922;28;20218;-63
2024/01/11 06:00:56;;;;;;;12.55;9.70;;;-7.90;99.90;;;;;;5022846;28;20231;-63
2024/01/11 06:03:23;;;;;;;14.65;12.30;;;-7.90;99.90;;;;;;5030780;28;20250;-63
2024/01/11 06:05:50;;;;;;;19.15;11.25;;;-8.00;99.90;;;;;;5031116;28;20207;-63
2024/01/11 06:08:18;;;;;;;23.08;12.75;;;-8.00;99.90;;;;;;5034696;28;20207;-63
2024/01/11 06:10:45;;;;;;;18.00;16.25;;;-8.00;99.90;;;;;;5034647;28;20213;-63
2024/01/11 06:13:12;;;;;;;13.75;11.75;;;-8.00;99.90;;;;;;5034757;28;20226;-63
2024/01/11 06:15:39;;;;;;;16.13;11.07;;;-8.00;99.90;;;;;;5034737;28;20211;-63
2024/01/11 06:18:06;;;;;;;19.23;11.93;;;-8.00;99.90;;;;;;5034925;28;20210;-63
2024/01/11 06:20:33;;;;;;;18.17;13.77;;;-8.00;99.90;;;;;;5034736;28;20649;-63
2024/01/11 06:22:59;;;;;;;16.40;12.10;;;-8.00;99.90;;;;;;5034202;28;20333;-63
2024/01/11 06:25:28;;;;;;;21.95;12.63;;;-8.00;99.90;;;;;;5034618;28;20301;-63
2024/01/11 06:27:54;;;;;;;18.38;13.07;;;-8.00;99.90;;;;;;5034556;28;20290;-63
2024/01/11 06:30:21;;;;;;;18.83;10.45;;;-8.00;99.90;;;;;;5034217;28;20207;-63
2024/01/11 06:32:48;;;;;;;11.68;9.85;;;-8.10;99.90;;;;;;5034653;28;20230;-63
2024/01/11 06:35:15;;;;;;;23.55;12.57;;;-8.10;99.90;;;;;;5034624;28;20257;-63
2024/01/11 06:37:42;;;;;;;12.68;10.27;;;-8.10;99.90;;;;;;5034418;28;20221;-63
2024/01/11 06:40:09;;;;;;;15.35;10.70;;;-8.10;99.90;;;;;;5034320;28;20203;-63
2024/01/11 06:42:37;;;;;;;16.60;11.45;;;-8.10;99.90;;;;;;5034249;28;20314;-63
2024/01/11 06:45:05;;;;;;;19.23;14.60;;;-8.10;99.90;;;;;;5034579;28;20306;-63
2024/01/11 06:47:32;;;;;;;15.40;10.95;;;-8.10;99.90;;;;;;5034263;28;20211;-63
2024/01/11 06:49:59;;;;;;;15.00;11.10;;;-8.10;99.90;;;;;;5034124;28;20206;-63
2024/01/11 06:52:26;;;;;;;18.05;11.88;;;-8.10;99.90;;;;;;5034132;28;20238;-61
2024/01/11 06:54:53;;;;;;;18.35;13.45;;;-8.20;99.90;;;;;;5034081;28;20297;-63
2024/01/11 06:57:19;;;;;;;17.23;11.13;;;-8.20;99.90;;;;;;5033991;28;20217;-63
2024/01/11 06:59:48;;;;;;;16.58;12.35;;;-8.20;99.90;;;;;;5033880;28;20213;-61
2024/01/11 07:02:15;;;;;;;13.48;10.90;;;-8.10;99.90;;;;;;5033372;28;20305;-63
2024/01/11 07:04:45;;;;;;;22.20;13.90;;;-8.10;99.90;;;;;;5034039;28;20207;-63
2024/01/11 07:07:12;;;;;;;19.80;12.65;;;-8.20;99.90;;;;;;5033926;28;20210;-63
2024/01/11 07:09:39;;;;;;;17.45;12.90;;;-8.20;99.90;;;;;;5033651;28;20269;-63
2024/01/11 07:12:06;;;;;;;16.05;11.40;;;-8.20;99.90;;;;;;5033660;28;20313;-63
2024/01/11 07:14:33;;;;;;;18.73;12.90;;;-8.10;99.90;;;;;;5025468;28;20207;-63
2024/01/11 07:17:02;;;;;;;13.98;11.82;;;-8.10;99.90;;;;;;5027854;28;20210;-63
2024/01/11 07:19:28;;;;;;;16.27;11.35;;;-8.20;99.90;;;;;;5023716;28;20207;-63
2024/01/11 07:21:55;;;;;;;17.63;10.77;;;-8.10;99.90;;;;;;5049479;22;20713;-60
2024/01/11 07:24:22;;;;;;;11.68;10.32;;;-8.20;99.90;;;;;;5019548;28;20226;-60
2024/01/11 07:26:49;;;;;;;14.70;12.95;;;-8.10;99.90;;;;;;5024906;28;20205;-59
2024/01/11 07:29:16;;;;;;;21.73;13.95;;;-8.10;99.90;;;;;;5031806;28;20211;-60
2024/01/11 07:31:42;;;;;;;21.23;11.65;;;-8.10;99.90;;;;;;5014050;28;20231;-61
2024/01/11 07:34:11;;;;;;;17.02;14.40;;;-8.10;99.90;;;;;;5014198;28;20208;-60
2024/01/11 07:36:38;;;;;;;21.85;12.85;;;-8.10;99.90;;;;;;5014324;28;20701;-60
2024/01/11 07:39:05;;;;;;;14.00;11.52;;;-8.10;99.90;;;;;;5014049;28;20571;-61
2024/01/11 07:41:32;;;;;;;13.43;11.13;;;-8.10;99.90;;;;;;5015554;28;20200;-60
2024/01/11 07:43:59;;;;;;;22.20;11.63;;;-8.10;99.90;;;;;;5013486;28;20231;-59
2024/01/11 07:46:26;;;;;;;22.92;11.82;;;-8.10;99.90;;;;;;5015190;28;20211;-61
2024/01/11 07:48:53;;;;;;;14.82;12.32;;;-8.10;99.90;;;;;;5022247;28;20290;-60
2024/01/11 07:51:21;;;;;;;13.57;12.05;;;-8.10;99.90;;;;;;5022386;28;20577;-60
2024/01/11 07:53:48;;;;;;;16.35;12.95;;;-8.10;99.90;;;;;;5017697;28;20196;-59
2024/01/11 07:56:15;;;;;;;17.90;11.70;;;-8.00;99.90;;;;;;5027720;28;20207;-58
2024/01/11 07:58:42;;;;;;;19.38;14.23;;;-8.00;99.90;;;;;;5033516;28;20206;-60
2024/01/11 08:01:10;;;;;;;17.67;12.82;;;-8.00;99.90;;;;;;5033060;28;20211;-60
2024/01/11 08:03:37;;;;;;;21.75;14.27;;;-8.00;99.90;;;;;;5027102;28;20615;-59
2024/01/11 08:06:07;;;;;;;14.50;12.60;;;-8.00;99.90;;;;;;5033194;28;20217;-57
2024/01/11 08:08:36;;;;;;;19.83;12.35;;;-7.90;99.90;;;;;;5033185;28;20211;-60
2024/01/11 08:11:03;;;;;;;14.55;12.45;;;-7.90;99.90;;;;;;5033185;28;20235;-60
2024/01/11 08:13:31;;;;;;;18.92;12.10;;;-8.00;99.90;;;;;;5021197;28;20710;-60
2024/01/11 08:15:58;;;;;;;13.95;11.50;;;-7.90;99.90;;;;;;5012423;28;20200;-60
2024/01/11 08:18:26;;;;;;;20.13;14.15;;;-7.90;99.90;;;;;;5012450;28;20216;-59
2024/01/11 08:20:53;;;;;;;19.88;16.70;;;-7.90;99.90;;;;;;5012405;28;20675;-61
2024/01/11 08:23:20;;;;;;;20.35;13.85;;;-7.80;99.90;;;;;;5012147;28;20235;-60
2024/01/11 08:25:48;;;;;;;20.08;12.57;;;-7.80;99.90;;;;;;5012599;28;20219;-60
2024/01/11 08:28:15;;;;;;;18.70;12.55;;;-7.80;99.90;;;;;;5012410;28;20199;-60
2024/01/11 08:30:42;;;;;;;16.83;13.15;;;-7.70;99.90;;;;;;5011831;28;20214;-60
2024/01/11 08:33:09;;;;;;;20.55;12.35;;;-7.70;99.90;;;;;;5012067;28;20220;-60
2024/01/11 08:35:36;;;;;;;22.02;14.13;;;-7.70;99.90;;;;;;5012675;28;20215;-60
2024/01/11 08:38:03;;;;;;;18.40;12.90;;;-7.70;99.90;;;;;;5012305;28;20212;-59
2024/01/11 08:40:30;;;;;;;24.88;14.45;;;-7.60;99.90;;;;;;5012317;28;20215;-60
2024/01/11 08:42:59;;;;;;;22.20;15.68;;;-7.60;99.90;;;;;;5011964;28;20228;-60
2024/01/11 08:45:26;;;;;;;22.10;12.88;;;-7.60;99.90;;;;;;5012341;28;20298;-59
2024/01/11 08:47:53;;;;;;;25.55;15.30;;;-7.60;99.90;;;;;;5012248;28;20208;-60
2024/01/11 08:50:21;;;;;;;22.55;14.85;;;-7.50;99.90;;;;;;5011830;28;20211;-60
2024/01/11 08:52:48;;;;;;;18.90;14.55;;;-7.40;99.90;;;;;;5012132;28;20278;-60
2024/01/11 08:55:15;;;;;;;27.92;15.73;;;-7.40;99.90;;;;;;5012142;28;20305;-60
2024/01/11 08:57:42;;;;;;;24.27;15.15;;;-7.30;99.90;;;;;;5012479;28;20212;-60
2024/01/11 09:00:11;;;;;;;28.13;17.40;;;-7.30;99.90;;;;;;5011796;28;20208;-60
2024/01/11 09:02:38;;;;;;;23.45;15.93;;;-7.20;99.90;;;;;;5012260;28;20859;-61
2024/01/11 09:05:07;;;;;;;21.70;15.30;;;-7.20;99.90;;;;;;5011866;28;20232;-60
2024/01/11 09:07:33;;;;;;;25.67;15.25;;;-7.20;99.90;;;;;;5011751;28;20211;-60
2024/01/11 09:10:00;;;;;;;22.08;15.07;;;-7.10;99.90;;;;;;5011875;28;20216;-60
2024/01/11 09:12:27;;;;;;;25.02;16.25;;;-7.00;99.90;;;;;;5012006;28;20234;-60
2024/01/11 09:14:54;;;;;;;19.30;17.13;;;-7.00;99.90;;;;;;5011817;28;20206;-60
2024/01/11 09:17:22;;;;;;;25.90;16.60;;;-6.90;99.90;;;;;;5011574;28;20682;-59
2024/01/11 09:19:49;;;;;;;17.08;15.38;;;-6.90;99.90;;;;;;5010491;28;20207;-60
2024/01/11 09:22:16;;;;;;;26.17;14.80;;;-6.90;99.90;;;;;;5011616;28;20677;-61
2024/01/11 09:24:43;;;;;;;20.23;15.77;;;-6.80;99.90;;;;;;5011709;28;20231;-61
2024/01/11 09:27:10;;;;;;;19.60;13.00;;;-6.70;99.90;;;;;;5011834;28;20208;-61
2024/01/11 09:29:37;;;;;;;19.42;14.68;;;-6.70;99.90;;;;;;5011486;28;20617;-60
2024/01/11 09:32:05;;;;;;;22.88;15.65;;;-6.60;99.90;;;;;;5014198;28;20309;-60
2024/01/11 09:34:33;;;;;;;17.60;13.20;;;-6.50;99.90;;;;;;5030096;28;20325;-60
2024/01/11 09:37:00;;;;;;;19.00;16.30;;;-6.40;99.90;;;;;;5031282;28;20290;-60
2024/01/11 09:39:27;;;;;;;24.70;16.88;;;-6.40;99.90;;;;;;5031281;28;20222;-59
2024/01/11 09:41:59;;;;;;;24.90;16.40;;;-6.30;99.90;;;;;;5034600;28;20238;-59
2024/01/11 09:44:27;;;;;;;18.75;14.40;;;-6.20;99.90;;;;;;5035504;28;20232;-61
2024/01/11 09:46:55;;;;;;;22.38;14.25;;;-6.20;99.90;;;;;;5035441;28;20777;-60
2024/01/11 09:49:23;;;;;;;20.65;14.82;;;-6.10;99.90;;;;;;5035066;28;20298;-61
2024/01/11 09:51:52;;;;;;;20.50;14.38;;;-6.10;99.90;;;;;;5035337;28;20227;-61
2024/01/11 09:54:21;;;;;;;25.20;16.63;;;-6.00;99.90;;;;;;5035580;28;20298;-60
2024/01/11 09:56:51;;;;;;;22.58;14.65;;;-5.90;99.90;;;;;;5035467;28;20215;-59
2024/01/11 09:59:22;;;;;;;20.73;16.00;;;-5.80;99.90;;;;;;5035203;28;20769;-60
2024/01/11 10:01:50;;;;;;;22.67;15.88;;;-5.70;99.90;;;;;;5035248;28;20233;-61
2024/01/11 10:04:17;;;;;;;26.10;17.92;;;-5.50;99.90;;;;;;5035282;28;20231;-60
2024/01/11 10:06:44;;;;;;;25.25;17.02;;;-5.50;99.90;;;;;;5035304;28;20211;-61
2024/01/11 10:09:13;;;;;;;24.17;17.52;;;-5.40;99.90;;;;;;5035129;28;20563;-62
2024/01/11 10:11:40;;;;;;;21.05;16.13;;;-5.30;99.90;;;;;;5035074;28;20289;-60
2024/01/11 10:14:08;;;;;;;29.63;18.50;;;-5.20;99.90;;;;;;5035016;28;20203;-61
2024/01/11 10:16:35;;;;;;;26.42;18.30;;;-5.10;99.90;;;;;;5034960;28;20678;-60
2024/01/11 10:19:03;;;;;;;26.48;17.98;;;-5.10;99.90;;;;;;5035152;28;20218;-60
2024/01/11 10:21:30;;;;;;;26.08;19.10;;;-5.00;99.90;;;;;;5034583;28;20685;-58
2024/01/11 10:23:58;;;;;;;21.27;16.80;;;-4.90;99.90;;;;;;5034690;28;20223;-60
2024/01/11 10:26:26;;;;;;;26.33;18.83;;;-4.80;99.90;;;;;;5034964;28;20215;-60
2024/01/11 10:28:53;;;;;;;33.65;19.88;;;-4.70;99.90;;;;;;5034623;28;20209;-60
2024/01/11 10:31:27;;;;;;;24.98;17.50;;;-4.70;99.90;;;;;;5034646;28;20257;-59
2024/01/11 10:33:54;;;;;;;24.92;18.60;;;-4.60;99.90;;;;;;5029256;28;20202;-61
2024/01/11 10:36:21;;;;;;;23.25;17.30;;;-4.50;99.90;;;;;;5034769;28;20595;-60
2024/01/11 10:38:49;;;;;;;26.10;17.60;;;-4.40;99.90;;;;;;5034726;28;20294;-60
2024/01/11 10:41:19;;;;;;;24.55;17.88;;;-4.30;99.90;;;;;;5025132;28;20207;-59
2024/01/11 10:43:49;;;;;;;27.63;19.08;;;-4.10;99.90;;;;;;5014463;28;20239;-60
2024/01/11 10:46:22;;;;;;;24.98;21.00;;;-4.00;99.90;;;;;;5014395;28;20671;-61
2024/01/11 10:48:52;;;;;;;38.92;26.38;;;-3.80;99.90;;;;;;5013198;28;20439;-60
2024/01/11 10:51:22;;;;;;;24.75;18.55;;;-3.50;99.90;;;;;;5014133;28;20215;-60
2024/01/11 10:53:51;;;;;;;28.38;19.83;;;-3.20;99.90;;;;;;5013401;28;20204;-60
2024/01/11 10:56:18;;;;;;;23.80;18.13;;;-3.00;99.90;;;;;;5014567;28;20219;-61
2024/01/11 10:58:47;;;;;;;32.83;20.58;;;-2.70;99.90;;;;;;5014302;28;20208;-60
2024/01/11 11:01:15;;;;;;;26.30;18.25;;;-2.50;99.90;;;;;;5013971;28;20212;-61
2024/01/11 11:03:44;;;;;;;26.67;17.60;;;-2.20;99.90;;;;;;5013907;28;20302;-61
2024/01/11 11:06:12;;;;;;;29.13;22.35;;;-2.00;99.90;;;;;;5013934;28;20231;-61
2024/01/11 11:08:40;;;;;;;23.02;18.80;;;-1.70;99.90;;;;;;5013736;28;20212;-62
2024/01/11 11:11:07;;;;;;;27.88;19.65;;;-1.50;99.90;;;;;;5018999;28;20329;-61
2024/01/11 11:13:35;;;;;;;25.35;19.50;;;-1.30;99.90;;;;;;5019765;28;20274;-61
2024/01/11 11:16:04;;;;;;;22.58;17.73;;;-1.10;99.90;;;;;;5022780;28;20211;-61
2024/01/11 11:18:33;;;;;;;26.17;16.83;;;-0.90;99.90;;;;;;5021699;28;20200;-61
2024/01/11 11:21:00;;;;;;;23.23;18.80;;;-0.70;99.90;;;;;;5022437;28;20206;-61
2024/01/11 11:23:26;;;;;;;24.13;18.45;;;-0.50;99.90;;;;;;5023652;28;20242;-61
2024/01/11 11:25:56;;;;;;;29.02;20.48;;;-0.30;99.90;;;;;;5019623;28;20242;-60
2024/01/11 11:28:24;;;;;;;25.75;20.10;;;-0.20;99.90;;;;;;5022170;28;20208;-61
2024/01/11 11:30:53;;;;;;;21.10;18.20;;;0.00;99.90;;;;;;5021724;28;20207;-62
2024/01/11 11:33:24;;;;;;;25.80;19.83;;;0.10;99.90;;;;;;5022317;28;20257;-61
2024/01/11 11:35:54;;;;;;;22.85;17.92;;;0.30;99.90;;;;;;5021492;28;20235;-61
2024/01/11 11:38:22;;;;;;;23.15;18.73;;;0.20;99.90;;;;;;5022959;28;20204;-61
2024/01/11 11:40:51;;;;;;;23.27;17.83;;;0.20;99.90;;;;;;5019783;28;20225;-61
2024/01/11 11:43:19;;;;;;;25.13;17.00;;;0.20;99.90;;;;;;5017688;28;20233;-61
2024/01/11 11:45:47;;;;;;;28.55;19.50;;;0.20;99.90;;;;;;5023414;28;20219;-61
2024/01/11 11:48:50;;;;;;;26.83;19.88;;;0.20;99.90;;;;;;5013984;28;20208;-60
2024/01/11 11:51:19;;;;;;;22.45;17.15;;;0.20;99.90;;;;;;5008269;28;20207;-59
2024/01/11 11:53:47;;;;;;;20.77;16.38;;;0.20;99.90;;;;;;5011399;28;20246;-61
2024/01/11 11:56:16;;;;;;;20.58;14.52;;;0.10;99.90;;;;;;5012540;28;20207;-62
2024/01/11 11:58:44;;;;;;;25.80;17.77;;;0.10;99.90;;;;;;5012570;28;20235;-61
2024/01/11 12:01:12;;;;;;;24.13;18.90;;;0.00;99.90;;;;;;5010258;28;20294;-60
2024/01/11 12:03:41;;;;;;;26.10;17.77;;;0.00;99.90;;;;;;5010835;28;20231;-58
2024/01/11 12:06:10;;;;;;;25.92;18.45;;;0.00;99.90;;;;;;5009587;28;20219;-60
2024/01/11 12:08:37;;;;;;;26.95;18.48;;;0.10;99.90;;;;;;5009251;28;20208;-61
2024/01/11 12:11:05;;;;;;;24.27;17.80;;;0.10;99.90;;;;;;5011323;28;20210;-61
2024/01/11 12:13:33;;;;;;;22.92;15.75;;;0.20;99.90;;;;;;5012229;28;20238;-60
2024/01/11 12:16:00;;;;;;;21.23;16.17;;;0.40;99.90;;;;;;5012010;28;20231;-61
2024/01/11 12:18:27;;;;;;;23.95;16.65;;;0.60;99.90;;;;;;5012041;28;20291;-58
2024/01/11 12:20:54;;;;;;;21.10;18.15;;;0.80;99.90;;;;;;5011750;28;20212;-61
2024/01/11 12:23:23;;;;;;;22.15;17.35;;;1.20;99.90;;;;;;5011610;28;20232;-62
2024/01/11 12:25:50;;;;;;;25.83;16.80;;;1.50;99.90;;;;;;5011549;28;20228;-61
2024/01/11 12:28:17;;;;;;;24.83;18.15;;;1.90;99.90;;;;;;5012195;28;20290;-61
2024/01/11 12:30:46;;;;;;;19.50;17.25;;;2.20;99.90;;;;;;5011513;28;20770;-62
2024/01/11 12:33:13;;;;;;;20.27;17.08;;;2.70;99.90;;;;;;5011486;28;20227;-61